地図

経路データ

SID SEASON NUMBER BASIN SUBBASIN NAME ISO_TIME NATURE LAT LON WMO_WIND WMO_PRES WMO_AGENCY TRACK_TYPE DIST2LAND LANDFALL IFLAG USA_AGENCY USA_ATCF_ID USA_LAT USA_LON USA_RECORD USA_STATUS USA_WIND USA_PRES USA_SSHS USA_R34_NE USA_R34_SE USA_R34_SW USA_R34_NW USA_R50_NE USA_R50_SE USA_R50_SW USA_R50_NW USA_R64_NE USA_R64_SE USA_R64_SW USA_R64_NW USA_POCI USA_ROCI USA_RMW USA_EYE TOKYO_LAT TOKYO_LON TOKYO_GRADE TOKYO_WIND TOKYO_PRES TOKYO_R50_DIR TOKYO_R50_LONG TOKYO_R50_SHORT TOKYO_R30_DIR TOKYO_R30_LONG TOKYO_R30_SHORT TOKYO_LAND CMA_LAT CMA_LON CMA_CAT CMA_WIND CMA_PRES HKO_LAT HKO_LON HKO_CAT HKO_WIND HKO_PRES NEWDELHI_LAT NEWDELHI_LON NEWDELHI_GRADE NEWDELHI_WIND NEWDELHI_PRES NEWDELHI_CI NEWDELHI_DP NEWDELHI_POCI REUNION_LAT REUNION_LON REUNION_TYPE REUNION_WIND REUNION_PRES REUNION_TNUM REUNION_CI REUNION_RMW REUNION_R34_NE REUNION_R34_SE REUNION_R34_SW REUNION_R34_NW REUNION_R50_NE REUNION_R50_SE REUNION_R50_SW REUNION_R50_NW REUNION_R64_NE REUNION_R64_SE REUNION_R64_SW REUNION_R64_NW BOM_LAT BOM_LON BOM_TYPE BOM_WIND BOM_PRES BOM_TNUM BOM_CI BOM_RMW BOM_R34_NE BOM_R34_SE BOM_R34_SW BOM_R34_NW BOM_R50_NE BOM_R50_SE BOM_R50_SW BOM_R50_NW BOM_R64_NE BOM_R64_SE BOM_R64_SW BOM_R64_NW BOM_ROCI BOM_POCI BOM_EYE BOM_POS_METHOD BOM_PRES_METHOD NADI_LAT NADI_LON NADI_CAT NADI_WIND NADI_PRES WELLINGTON_LAT WELLINGTON_LON WELLINGTON_WIND WELLINGTON_PRES DS824_LAT DS824_LON DS824_STAGE DS824_WIND DS824_PRES TD9636_LAT TD9636_LON TD9636_STAGE TD9636_WIND TD9636_PRES TD9635_LAT TD9635_LON TD9635_WIND TD9635_PRES TD9635_ROCI NEUMANN_LAT NEUMANN_LON NEUMANN_CLASS NEUMANN_WIND NEUMANN_PRES MLC_LAT MLC_LON MLC_CLASS MLC_WIND MLC_PRES USA_GUST BOM_GUST BOM_GUST_PER REUNION_GUST REUNION_GUST_PER USA_SEAHGT USA_SEARAD_NE USA_SEARAD_SE USA_SEARAD_SW USA_SEARAD_NW STORM_SPEED STORM_DIR
1994221N15215 1994 63 EP CP NOT_NAMED 1994-08-09 06:00:00 TS 15.3000 -145.500 25 hurdat_epa main 1092 1063 O_____________ hurdat_epa CP011994 15.3000 -145.500 TD 25 -1 5 318
1994221N15215 1994 63 EP CP NOT_NAMED 1994-08-09 09:00:00 TS 15.4850 -145.670 main 1063 1049 P_____________ CP011994 15.4850 -145.670 TD 27 -1 4 316
1994221N15215 1994 63 EP CP NOT_NAMED 1994-08-09 12:00:00 TS 15.6000 -145.800 30 hurdat_epa main 1049 1039 O_____________ hurdat_epa CP011994 15.6000 -145.800 TD 30 -1 2 303
1994221N15215 1994 63 EP CP NOT_NAMED 1994-08-09 15:00:00 TS 15.6075 -145.865 main 1039 1039 P_____________ CP011994 15.6075 -145.865 TD 30 -1 1 270
1994221N15215 1994 63 EP CP NOT_NAMED 1994-08-09 18:00:00 TS 15.6000 -145.900 30 hurdat_epa main 1039 1034 O_____________ hurdat_epa CP011994 15.6000 -145.900 TD 30 -1 1 322
1994221N15215 1994 63 EP CP NOT_NAMED 1994-08-09 21:00:00 TS 15.6700 -145.928 main 1034 1020 P_____________ CP011994 15.6700 -145.928 TD 30 -1 2 333
1994221N15215 1994 63 EP CP NOT_NAMED 1994-08-10 00:00:00 TS 15.8000 -146.000 30 hurdat_epa main 1020 991 O_____________ hurdat_epa CP011994 15.8000 -146.000 TD 30 -1 4 325
1994221N15215 1994 63 EP CP NOT_NAMED 1994-08-10 03:00:00 TS 15.9925 -146.162 main 991 962 P_____________ CP011994 15.9925 -146.162 TD 30 -1 6 316
1994221N15215 1994 63 EP CP NOT_NAMED 1994-08-10 06:00:00 TS 16.2000 -146.400 30 hurdat_epa main 962 934 O_____________ hurdat_epa CP011994 16.2000 -146.400 TD 30 -1 6 309
1994221N15215 1994 63 EP CP NOT_NAMED 1994-08-10 09:00:00 TS 16.3724 -146.655 main 924 890 P_____________ CP011994 16.3724 -146.655 TD 30 -1 7 298
1994221N15215 1994 63 EP CP NOT_NAMED 1994-08-10 12:00:00 TS 16.5000 -147.000 30 hurdat_epa main 890 846 O_____________ hurdat_epa CP011994 16.5000 -147.000 TD 30 -1 8 284
1994221N15215 1994 63 EP CP NOT_NAMED 1994-08-10 15:00:00 TS 16.5648 -147.440 main 846 788 P_____________ CP011994 16.5648 -147.440 TD 30 -1 10 276
1994221N15215 1994 63 EP CP NOT_NAMED 1994-08-10 18:00:00 TS 16.6000 -148.000 30 hurdat_epa main 788 721 O_____________ hurdat_epa CP011994 16.6000 -148.000 TD 30 -1 12 274
1994221N15215 1994 63 EP CP NOT_NAMED 1994-08-10 21:00:00 TS 16.6503 -148.700 main 716 651 P_____________ CP011994 16.6503 -148.700 TD 30 -1 13 274
1994221N15215 1994 63 EP CP NOT_NAMED 1994-08-11 00:00:00 TS 16.7000 -149.400 30 hurdat_epa main 651 599 O_____________ hurdat_epa CP011994 16.7000 -149.400 TD 30 -1 12 275
1994221N15215 1994 63 EP CP NOT_NAMED 1994-08-11 03:00:00 TS 16.7571 -149.922 main 599 554 P_____________ CP011994 16.7571 -149.922 TD 30 -1 10 276
1994221N15215 1994 63 EP CP NOT_NAMED 1994-08-11 06:00:00 TS 16.8000 -150.400 30 hurdat_epa main 554 510 O_____________ hurdat_epa CP011994 16.8000 -150.400 TD 30 -1 10 272
1994221N15215 1994 63 EP CP NOT_NAMED 1994-08-11 09:00:00 TS 16.7926 -150.965 main 502 461 P_____________ CP011994 16.7926 -150.965 TD 30 -1 11 270
1994221N15215 1994 63 EP CP NOT_NAMED 1994-08-11 12:00:00 TS 16.8000 -151.500 30 hurdat_epa main 461 422 O_____________ hurdat_epa CP011994 16.8000 -151.500 TD 30 -1 9 277
1994221N15215 1994 63 EP CP NOT_NAMED 1994-08-11 15:00:00 TS 16.8996 -151.900 main 422 384 P_____________ CP011994 16.8996 -151.900 TD 30 -1 8 285
1994221N15215 1994 63 EP CP NOT_NAMED 1994-08-11 18:00:00 TS 17.0000 -152.300 30 hurdat_epa main 384 346 O_____________ hurdat_epa CP011994 17.0000 -152.300 TD 30 -1 9 277
1994221N15215 1994 63 EP CP NOT_NAMED 1994-08-11 21:00:00 TS 17.0000 -152.820 main 346 307 P_____________ CP011994 17.0000 -152.820 TD 30 -1 11 270
1994221N15215 1994 63 EP CP NOT_NAMED 1994-08-12 00:00:00 TS 17.0000 -153.400 30 hurdat_epa main 307 272 O_____________ hurdat_epa CP011994 17.0000 -153.400 TD 30 -1 11 275
1994221N15215 1994 63 EP CP NOT_NAMED 1994-08-12 03:00:00 TS 17.0922 -153.977 main 267 222 P_____________ CP011994 17.0922 -153.977 TD 30 -1 12 280
1994221N15215 1994 63 EP CP NOT_NAMED 1994-08-12 06:00:00 TS 17.2000 -154.600 30 hurdat_epa main 222 183 O_____________ hurdat_epa CP011994 17.2000 -154.600 TD 30 -1 13 278
1994221N15215 1994 63 EP CP NOT_NAMED 1994-08-12 09:00:00 TS 17.2650 -155.293 main 183 179 P_____________ CP011994 17.2650 -155.293 TD 30 -1 13 274
1994221N15215 1994 63 EP CP NOT_NAMED 1994-08-12 12:00:00 TS 17.3000 -156.000 30 hurdat_epa main 181 181 O_____________ hurdat_epa CP011994 17.3000 -156.000 TD 30 -1 13 272
1994221N15215 1994 63 EP CP NOT_NAMED 1994-08-12 15:00:00 TS 17.3224 -156.672 main 207 207 P_____________ CP011994 17.3224 -156.672 TD 30 -1 12 270
1994221N15215 1994 63 EP CP NOT_NAMED 1994-08-12 18:00:00 TS 17.3000 -157.300 30 hurdat_epa main 246 246 O_____________ hurdat_epa CP011994 17.3000 -157.300 TD 30 -1 11 265
1994221N15215 1994 63 EP CP NOT_NAMED 1994-08-12 21:00:00 TS 17.2222 -157.857 main 299 299 P_____________ CP011994 17.2222 -157.857 TD 27 -1 11 259
1994221N15215 1994 63 EP CP NOT_NAMED 1994-08-13 00:00:00 TS 17.1000 -158.400 25 hurdat_epa main 346 346 O_____________ hurdat_epa CP011994 17.1000 -158.400 TD 25 -1 11 256
1994221N15215 1994 63 EP CP NOT_NAMED 1994-08-13 03:00:00 TS 16.9425 -159.000 main 409 409 P_____________ CP011994 16.9425 -159.000 TD 25 -1 12 255
1994221N15215 1994 63 EP CP NOT_NAMED 1994-08-13 06:00:00 TS 16.8000 -159.600 25 hurdat_epa main 468 468 O_____________ hurdat_epa CP011994 16.8000 -159.600 TD 25 -1 11 259
1994221N15215 1994 63 EP CP NOT_NAMED 1994-08-13 09:00:00 TS 16.7272 -160.150 main 519 519 P_____________ CP011994 16.7272 -160.150 TD 25 -1 11 265
1994221N15215 1994 63 EP CP NOT_NAMED 1994-08-13 12:00:00 TS 16.7000 -160.700 25 hurdat_epa main 574 574 O_____________ hurdat_epa CP011994 16.7000 -160.700 TD 25 -1 11 267
1994221N15215 1994 63 EP CP NOT_NAMED 1994-08-13 15:00:00 TS 16.6773 -161.278 main 613 613 P_____________ CP011994 16.6773 -161.278 TD 25 -1 12 270
1994221N15215 1994 63 EP CP NOT_NAMED 1994-08-13 18:00:00 TS 16.7000 -161.900 25 hurdat_epa main 632 632 O_____________ hurdat_epa CP011994 16.7000 -161.900 TD 25 -1 13 272
1994221N15215 1994 63 EP CP NOT_NAMED 1994-08-13 21:00:00 TS 16.7326 -162.600 main 661 661 P_____________ CP011994 16.7326 -162.600 TD 25 -1 14 278
1994221N15215 1994 63 EP CP NOT_NAMED 1994-08-14 00:00:00 TS 16.9000 -163.300 25 hurdat_epa main 678 674 O_____________ hurdat_epa CP011994 16.9000 -163.300 TD 25 -1 14 294
1994221N15215 1994 63 EP CP NOT_NAMED 1994-08-14 03:00:00 TS 17.2852 -163.924 main 678 672 P_____________ CP011994 17.2852 -163.924 TD 25 -1 15 308
1994221N15215 1994 63 EP CP NOT_NAMED 1994-08-14 06:00:00 TS 17.8000 -164.500 25 hurdat_epa main 679 O_____________ hurdat_epa CP011994 17.8000 -164.500 TD 25 -1 15 313

IBTrACS Databaseについて

本データベースは、米国NOAAが公開する1842年以降の世界の熱帯低気圧のベストトラックデータアーカイブInternational Best Track Archive for Climate Stewardship (IBTrACS)を、ウェブで閲覧しやすい形式に変換したものです。

最終更新日:2021-10-21